sensor_id;sensor_type;location;lat;lon;timestamp;pressure;altitude;pressure_sealevel;temperature;humidity
57114;BME280;42994;51.606;9.988;2022-09-03T00:01:45;99305.31;;;13.44;88.51
57114;BME280;42994;51.606;9.988;2022-09-03T00:04:18;99304.94;;;13.47;88.84
57114;BME280;42994;51.606;9.988;2022-09-03T00:06:51;99298.47;;;13.41;89.11
57114;BME280;42994;51.606;9.988;2022-09-03T00:09:25;99309.22;;;13.35;89.81
57114;BME280;42994;51.606;9.988;2022-09-03T00:12:01;99299.09;;;13.37;89.48
57114;BME280;42994;51.606;9.988;2022-09-03T00:14:35;99305.50;;;13.36;89.83
57114;BME280;42994;51.606;9.988;2022-09-03T00:17:07;99301.59;;;13.38;90.05
57114;BME280;42994;51.606;9.988;2022-09-03T00:19:40;99297.84;;;13.39;90.20
57114;BME280;42994;51.606;9.988;2022-09-03T00:22:14;99299.72;;;13.39;89.74
57114;BME280;42994;51.606;9.988;2022-09-03T00:24:43;99302.81;;;13.36;90.61
57114;BME280;42994;51.606;9.988;2022-09-03T00:27:16;99297.22;;;13.37;90.36
57114;BME280;42994;51.606;9.988;2022-09-03T00:29:47;99296.53;;;13.28;90.90
57114;BME280;42994;51.606;9.988;2022-09-03T00:32:19;99293.22;;;13.26;91.71
57114;BME280;42994;51.606;9.988;2022-09-03T00:34:51;99295.09;;;13.26;91.54
57114;BME280;42994;51.606;9.988;2022-09-03T00:37:21;99299.03;;;13.30;91.90
57114;BME280;42994;51.606;9.988;2022-09-03T00:39:48;99289.75;;;13.33;91.58
57114;BME280;42994;51.606;9.988;2022-09-03T00:42:34;99294.88;;;13.27;91.86
57114;BME280;42994;51.606;9.988;2022-09-03T00:47:48;99282.66;;;13.18;92.39
57114;BME280;42994;51.606;9.988;2022-09-03T00:50:27;99284.28;;;13.19;93.17
57114;BME280;42994;51.606;9.988;2022-09-03T00:53:03;99291.31;;;13.14;93.71
57114;BME280;42994;51.606;9.988;2022-09-03T00:55:38;99277.03;;;13.13;93.45
57114;BME280;42994;51.606;9.988;2022-09-03T00:58:30;99285.69;;;13.08;94.28
57114;BME280;42994;51.606;9.988;2022-09-03T01:01:07;99287.38;;;13.10;94.21
57114;BME280;42994;51.606;9.988;2022-09-03T01:03:41;99283.22;;;13.07;94.23
57114;BME280;42994;51.606;9.988;2022-09-03T01:06:17;99281.75;;;12.98;95.27
57114;BME280;42994;51.606;9.988;2022-09-03T01:09:08;99284.81;;;12.95;95.74
57114;BME280;42994;51.606;9.988;2022-09-03T01:11:43;99284.00;;;12.94;96.67
57114;BME280;42994;51.606;9.988;2022-09-03T01:14:23;99278.19;;;12.91;96.66
57114;BME280;42994;51.606;9.988;2022-09-03T01:16:59;99285.59;;;12.88;97.04
57114;BME280;42994;51.606;9.988;2022-09-03T01:20:00;99277.72;;;12.80;97.99
57114;BME280;42994;51.606;9.988;2022-09-03T01:22:50;99284.78;;;12.88;97.60
57114;BME280;42994;51.606;9.988;2022-09-03T01:25:35;99291.66;;;12.91;97.03
57114;BME280;42994;51.606;9.988;2022-09-03T01:28:18;99292.84;;;12.88;98.04
57114;BME280;42994;51.606;9.988;2022-09-03T01:30:55;99290.78;;;12.90;97.21
57114;BME280;42994;51.606;9.988;2022-09-03T01:33:27;99291.16;;;12.80;98.72
57114;BME280;42994;51.606;9.988;2022-09-03T01:36:03;99288.88;;;12.77;99.00
57114;BME280;42994;51.606;9.988;2022-09-03T01:38:39;99288.91;;;12.84;98.57
57114;BME280;42994;51.606;9.988;2022-09-03T01:41:16;99296.31;;;12.75;99.54
57114;BME280;42994;51.606;9.988;2022-09-03T01:44:14;99300.44;;;12.71;99.96
57114;BME280;42994;51.606;9.988;2022-09-03T01:46:49;99296.69;;;12.72;100.00
57114;BME280;42994;51.606;9.988;2022-09-03T01:49:23;99306.63;;;12.65;100.00
57114;BME280;42994;51.606;9.988;2022-09-03T01:52:02;99300.63;;;12.69;100.00
57114;BME280;42994;51.606;9.988;2022-09-03T01:54:43;99293.78;;;12.67;100.00
57114;BME280;42994;51.606;9.988;2022-09-03T01:57:27;99293.56;;;12.68;100.00
57114;BME280;42994;51.606;9.988;2022-09-03T02:00:05;99298.56;;;12.65;100.00
57114;BME280;42994;51.606;9.988;2022-09-03T02:02:40;99293.16;;;12.65;100.00
57114;BME280;42994;51.606;9.988;2022-09-03T02:05:13;99298.94;;;12.68;100.00
57114;BME280;42994;51.606;9.988;2022-09-03T02:07:42;99289.25;;;12.67;100.00
57114;BME280;42994;51.606;9.988;2022-09-03T02:10:13;99287.78;;;12.65;100.00
57114;BME280;42994;51.606;9.988;2022-09-03T02:12:43;99300.38;;;12.64;100.00
57114;BME280;42994;51.606;9.988;2022-09-03T02:15:16;99298.31;;;12.60;100.00
57114;BME280;42994;51.606;9.988;2022-09-03T02:17:46;99292.94;;;12.60;100.00
57114;BME280;42994;51.606;9.988;2022-09-03T02:20:17;99301.75;;;12.54;100.00
57114;BME280;42994;51.606;9.988;2022-09-03T02:22:46;99304.25;;;12.55;100.00
57114;BME280;42994;51.606;9.988;2022-09-03T02:25:13;99296.81;;;12.50;100.00
57114;BME280;42994;51.606;9.988;2022-09-03T02:27:41;99299.88;;;12.47;100.00
57114;BME280;42994;51.606;9.988;2022-09-03T02:30:09;99300.88;;;12.46;100.00
57114;BME280;42994;51.606;9.988;2022-09-03T02:32:38;99290.56;;;12.43;100.00
57114;BME280;42994;51.606;9.988;2022-09-03T02:35:05;99294.63;;;12.39;100.00
57114;BME280;42994;51.606;9.988;2022-09-03T02:37:32;99295.63;;;12.31;100.00
57114;BME280;42994;51.606;9.988;2022-09-03T02:39:59;99296.06;;;12.35;100.00
57114;BME280;42994;51.606;9.988;2022-09-03T02:42:26;99292.38;;;12.36;100.00
57114;BME280;42994;51.606;9.988;2022-09-03T02:44:58;99298.31;;;12.31;100.00
57114;BME280;42994;51.606;9.988;2022-09-03T02:47:30;99300.81;;;12.33;100.00
57114;BME280;42994;51.606;9.988;2022-09-03T02:49:58;99297.75;;;12.36;100.00
57114;BME280;42994;51.606;9.988;2022-09-03T02:52:25;99293.78;;;12.32;100.00
57114;BME280;42994;51.606;9.988;2022-09-03T02:54:52;99301.59;;;12.27;100.00
57114;BME280;42994;51.606;9.988;2022-09-03T02:57:18;99294.38;;;12.27;100.00
57114;BME280;42994;51.606;9.988;2022-09-03T02:59:45;99292.91;;;12.25;100.00
57114;BME280;42994;51.606;9.988;2022-09-03T03:02:12;99286.94;;;12.29;100.00
57114;BME280;42994;51.606;9.988;2022-09-03T03:04:39;99277.16;;;12.22;100.00
57114;BME280;42994;51.606;9.988;2022-09-03T03:07:07;99284.84;;;12.25;100.00
57114;BME280;42994;51.606;9.988;2022-09-03T03:09:34;99282.34;;;12.23;100.00
57114;BME280;42994;51.606;9.988;2022-09-03T03:12:01;99277.59;;;12.25;100.00
57114;BME280;42994;51.606;9.988;2022-09-03T03:14:28;99283.75;;;12.19;100.00
57114;BME280;42994;51.606;9.988;2022-09-03T03:16:55;99283.56;;;12.21;100.00
57114;BME280;42994;51.606;9.988;2022-09-03T03:19:21;99285.41;;;12.20;100.00
57114;BME280;42994;51.606;9.988;2022-09-03T03:21:48;99283.16;;;12.24;100.00
57114;BME280;42994;51.606;9.988;2022-09-03T03:24:16;99279.78;;;12.15;100.00
57114;BME280;42994;51.606;9.988;2022-09-03T03:26:43;99272.81;;;12.21;100.00
57114;BME280;42994;51.606;9.988;2022-09-03T03:29:14;99278.59;;;12.18;100.00
57114;BME280;42994;51.606;9.988;2022-09-03T03:31:41;99274.59;;;12.14;100.00
57114;BME280;42994;51.606;9.988;2022-09-03T03:34:08;99276.28;;;12.15;100.00
57114;BME280;42994;51.606;9.988;2022-09-03T03:36:35;99274.81;;;12.12;100.00
57114;BME280;42994;51.606;9.988;2022-09-03T03:39:02;99273.34;;;12.09;100.00
57114;BME280;42994;51.606;9.988;2022-09-03T03:41:31;99286.03;;;12.16;100.00
57114;BME280;42994;51.606;9.988;2022-09-03T03:44:00;99276.22;;;12.08;100.00
57114;BME280;42994;51.606;9.988;2022-09-03T03:46:29;99284.72;;;12.11;100.00
57114;BME280;42994;51.606;9.988;2022-09-03T03:48:56;99283.72;;;12.13;100.00
57114;BME280;42994;51.606;9.988;2022-09-03T03:51:24;99290.69;;;12.07;100.00
57114;BME280;42994;51.606;9.988;2022-09-03T03:53:53;99281.78;;;12.06;100.00
57114;BME280;42994;51.606;9.988;2022-09-03T03:56:19;99280.59;;;12.09;100.00
57114;BME280;42994;51.606;9.988;2022-09-03T03:58:48;99279.94;;;12.07;100.00
57114;BME280;42994;51.606;9.988;2022-09-03T04:01:16;99273.53;;;12.08;100.00
57114;BME280;42994;51.606;9.988;2022-09-03T04:03:44;99275.22;;;12.09;100.00
57114;BME280;42994;51.606;9.988;2022-09-03T04:06:12;99276.22;;;12.08;100.00
57114;BME280;42994;51.606;9.988;2022-09-03T04:08:40;99273.97;;;12.11;100.00
57114;BME280;42994;51.606;9.988;2022-09-03T04:11:08;99275.03;;;12.10;100.00
57114;BME280;42994;51.606;9.988;2022-09-03T04:13:37;99275.28;;;12.16;100.00
57114;BME280;42994;51.606;9.988;2022-09-03T04:16:07;99267.97;;;12.09;100.00
57114;BME280;42994;51.606;9.988;2022-09-03T04:18:35;99274.81;;;12.12;100.00
57114;BME280;42994;51.606;9.988;2022-09-03T04:21:03;99273.16;;;12.11;100.00
57114;BME280;42994;51.606;9.988;2022-09-03T04:23:31;99269.22;;;12.14;100.00
57114;BME280;42994;51.606;9.988;2022-09-03T04:25:59;99270.03;;;12.07;100.00
57114;BME280;42994;51.606;9.988;2022-09-03T04:28:26;99267.78;;;12.11;100.00
57114;BME280;42994;51.606;9.988;2022-09-03T04:30:53;99267.84;;;12.18;100.00
57114;BME280;42994;51.606;9.988;2022-09-03T04:33:23;99268.41;;;12.13;100.00
57114;BME280;42994;51.606;9.988;2022-09-03T04:35:50;99272.97;;;12.13;100.00
57114;BME280;42994;51.606;9.988;2022-09-03T04:38:16;99267.34;;;12.07;100.00
57114;BME280;42994;51.606;9.988;2022-09-03T04:40:50;99275.03;;;12.10;100.00
57114;BME280;42994;51.606;9.988;2022-09-03T04:43:17;99269.84;;;12.09;100.00
57114;BME280;42994;51.606;9.988;2022-09-03T04:45:44;99265.91;;;12.11;100.00
57114;BME280;42994;51.606;9.988;2022-09-03T04:48:11;99270.84;;;12.08;100.00
57114;BME280;42994;51.606;9.988;2022-09-03T04:50:39;99267.59;;;12.13;100.00
57114;BME280;42994;51.606;9.988;2022-09-03T04:53:06;99268.59;;;12.11;100.00
57114;BME280;42994;51.606;9.988;2022-09-03T04:55:33;99270.28;;;12.13;100.00
57114;BME280;42994;51.606;9.988;2022-09-03T04:58:00;99269.00;;;12.08;100.00
57114;BME280;42994;51.606;9.988;2022-09-03T05:00:27;99270.28;;;12.13;100.00
57114;BME280;42994;51.606;9.988;2022-09-03T05:02:54;99266.53;;;12.14;100.00
57114;BME280;42994;51.606;9.988;2022-09-03T05:05:21;99262.66;;;12.16;100.00
57114;BME280;42994;51.606;9.988;2022-09-03T05:07:49;99265.34;;;12.16;100.00
57114;BME280;42994;51.606;9.988;2022-09-03T05:10:16;99276.53;;;12.20;100.00
57114;BME280;42994;51.606;9.988;2022-09-03T05:12:45;99277.34;;;12.20;100.00
57114;BME280;42994;51.606;9.988;2022-09-03T05:15:14;99274.91;;;12.25;100.00
57114;BME280;42994;51.606;9.988;2022-09-03T05:17:41;99269.97;;;12.29;100.00
57114;BME280;42994;51.606;9.988;2022-09-03T05:20:08;99284.88;;;12.31;100.00
57114;BME280;42994;51.606;9.988;2022-09-03T05:22:35;99278.69;;;12.31;100.00
57114;BME280;42994;51.606;9.988;2022-09-03T05:25:04;99271.69;;;12.37;100.00
57114;BME280;42994;51.606;9.988;2022-09-03T05:27:31;99269.63;;;12.39;100.00
57114;BME280;42994;51.606;9.988;2022-09-03T05:29:58;99270.94;;;12.49;100.00
57114;BME280;42994;51.606;9.988;2022-09-03T05:32:25;99268.00;;;12.44;100.00
57114;BME280;42994;51.606;9.988;2022-09-03T05:34:53;99274.69;;;12.55;100.00
57114;BME280;42994;51.606;9.988;2022-09-03T05:37:20;99276.34;;;12.56;100.00
57114;BME280;42994;51.606;9.988;2022-09-03T05:39:47;99280.06;;;12.55;100.00
57114;BME280;42994;51.606;9.988;2022-09-03T05:42:16;99285.06;;;12.58;100.00
57114;BME280;42994;51.606;9.988;2022-09-03T05:44:42;99274.34;;;12.72;100.00
57114;BME280;42994;51.606;9.988;2022-09-03T05:47:09;99277.25;;;12.70;100.00
57114;BME280;42994;51.606;9.988;2022-09-03T05:49:35;99278.75;;;12.79;100.00
57114;BME280;42994;51.606;9.988;2022-09-03T05:52:02;99277.91;;;12.79;100.00
57114;BME280;42994;51.606;9.988;2022-09-03T05:54:29;99277.09;;;12.85;100.00
57114;BME280;42994;51.606;9.988;2022-09-03T05:56:56;99277.97;;;12.92;100.00
57114;BME280;42994;51.606;9.988;2022-09-03T05:59:24;99274.06;;;13.01;100.00
57114;BME280;42994;51.606;9.988;2022-09-03T06:01:50;99275.34;;;13.05;100.00
57114;BME280;42994;51.606;9.988;2022-09-03T06:04:17;99279.09;;;13.11;100.00
57114;BME280;42994;51.606;9.988;2022-09-03T06:06:45;99274.94;;;13.08;100.00
57114;BME280;42994;51.606;9.988;2022-09-03T06:09:14;99282.44;;;13.20;100.00
57114;BME280;42994;51.606;9.988;2022-09-03T06:11:43;99277.69;;;13.22;100.00
57114;BME280;42994;51.606;9.988;2022-09-03T06:14:11;99279.34;;;13.30;100.00
57114;BME280;42994;51.606;9.988;2022-09-03T06:16:41;99279.84;;;13.40;100.00
57114;BME280;42994;51.606;9.988;2022-09-03T06:19:08;99277.75;;;13.35;100.00
57114;BME280;42994;51.606;9.988;2022-09-03T06:21:36;99285.84;;;13.42;100.00
57114;BME280;42994;51.606;9.988;2022-09-03T06:24:04;99287.53;;;13.50;100.00
57114;BME280;42994;51.606;9.988;2022-09-03T06:26:31;99281.31;;;13.62;100.00
57114;BME280;42994;51.606;9.988;2022-09-03T06:28:58;99280.69;;;13.54;100.00
57114;BME280;42994;51.606;9.988;2022-09-03T06:31:25;99281.31;;;13.62;100.00
57114;BME280;42994;51.606;9.988;2022-09-03T06:33:53;99277.00;;;13.81;100.00
57114;BME280;42994;51.606;9.988;2022-09-03T06:36:22;99275.94;;;13.76;99.70
57114;BME280;42994;51.606;9.988;2022-09-03T06:38:51;99284.88;;;13.83;99.75
57114;BME280;42994;51.606;9.988;2022-09-03T06:41:20;99292.16;;;13.89;99.44
57114;BME280;42994;51.606;9.988;2022-09-03T06:43:50;99291.72;;;13.92;99.33
57114;BME280;42994;51.606;9.988;2022-09-03T06:46:19;99286.75;;;13.89;99.37
57114;BME280;42994;51.606;9.988;2022-09-03T06:48:47;99292.75;;;13.98;99.22
57114;BME280;42994;51.606;9.988;2022-09-03T06:51:17;99295.88;;;14.08;99.03
57114;BME280;42994;51.606;9.988;2022-09-03T06:53:46;99298.97;;;14.25;98.55
57114;BME280;42994;51.606;9.988;2022-09-03T06:56:16;99299.78;;;14.39;98.27
57114;BME280;42994;51.606;9.988;2022-09-03T06:58:44;99297.91;;;14.39;97.88
57114;BME280;42994;51.606;9.988;2022-09-03T07:01:13;99293.34;;;14.47;97.79
57114;BME280;42994;51.606;9.988;2022-09-03T07:03:41;99299.78;;;14.59;97.04
57114;BME280;42994;51.606;9.988;2022-09-03T07:06:10;99303.06;;;14.74;95.84
57114;BME280;42994;51.606;9.988;2022-09-03T07:08:39;99300.38;;;14.81;94.76
57114;BME280;42994;51.606;9.988;2022-09-03T07:11:08;99293.88;;;14.95;94.19
57114;BME280;42994;51.606;9.988;2022-09-03T07:13:36;99287.06;;;14.79;92.55
57114;BME280;42994;51.606;9.988;2022-09-03T07:16:06;99293.28;;;14.87;91.83
57114;BME280;42994;51.606;9.988;2022-09-03T07:18:34;99292.41;;;14.93;92.05
57114;BME280;42994;51.606;9.988;2022-09-03T07:21:03;99288.69;;;14.94;91.10
57114;BME280;42994;51.606;9.988;2022-09-03T07:23:30;99280.78;;;14.99;91.22
57114;BME280;42994;51.606;9.988;2022-09-03T07:26:00;99294.44;;;15.11;91.49
57114;BME280;42994;51.606;9.988;2022-09-03T07:28:29;99291.00;;;15.35;90.78
57114;BME280;42994;51.606;9.988;2022-09-03T07:31:01;99292.47;;;15.31;90.26
57114;BME280;42994;51.606;9.988;2022-09-03T07:33:28;99288.94;;;15.31;89.69
57114;BME280;42994;51.606;9.988;2022-09-03T07:36:00;99298.63;;;15.45;89.67
57114;BME280;42994;51.606;9.988;2022-09-03T07:38:27;99295.41;;;15.30;88.88
57114;BME280;42994;51.606;9.988;2022-09-03T07:40:56;99298.41;;;15.47;88.66
57114;BME280;42994;51.606;9.988;2022-09-03T07:43:25;99300.41;;;15.65;87.81
57114;BME280;42994;51.606;9.988;2022-09-03T07:45:52;99294.38;;;15.63;87.08
57114;BME280;42994;51.606;9.988;2022-09-03T07:48:20;99295.84;;;15.58;87.07
57114;BME280;42994;51.606;9.988;2022-09-03T07:50:46;99299.50;;;15.78;86.84
57114;BME280;42994;51.606;9.988;2022-09-03T07:53:14;99296.81;;;15.71;87.70
57114;BME280;42994;51.606;9.988;2022-09-03T07:55:42;99288.09;;;15.75;86.06
57114;BME280;42994;51.606;9.988;2022-09-03T07:58:09;99300.69;;;15.88;86.23
57114;BME280;42994;51.606;9.988;2022-09-03T08:00:38;99296.75;;;15.84;85.63
57114;BME280;42994;51.606;9.988;2022-09-03T08:03:05;99291.88;;;16.00;85.26
57114;BME280;42994;51.606;9.988;2022-09-03T08:05:33;99310.34;;;16.28;85.03
57114;BME280;42994;51.606;9.988;2022-09-03T08:08:01;99303.69;;;16.30;83.44
57114;BME280;42994;51.606;9.988;2022-09-03T08:10:27;99300.41;;;16.22;83.06
57114;BME280;42994;51.606;9.988;2022-09-03T08:12:56;99301.13;;;16.36;82.50
57114;BME280;42994;51.606;9.988;2022-09-03T08:15:23;99300.09;;;16.55;82.05
57114;BME280;42994;51.606;9.988;2022-09-03T08:17:52;99306.09;;;16.57;80.61
57114;BME280;42994;51.606;9.988;2022-09-03T08:20:19;99307.06;;;16.88;79.75
57114;BME280;42994;51.606;9.988;2022-09-03T08:22:45;99311.66;;;17.06;78.64
57114;BME280;42994;51.606;9.988;2022-09-03T08:25:12;99313.03;;;16.97;78.04
57114;BME280;42994;51.606;9.988;2022-09-03T08:27:39;99304.34;;;17.06;78.53
57114;BME280;42994;51.606;9.988;2022-09-03T08:30:07;99304.34;;;17.25;76.39
57114;BME280;42994;51.606;9.988;2022-09-03T08:32:36;99314.38;;;17.55;75.73
57114;BME280;42994;51.606;9.988;2022-09-03T08:35:06;99308.03;;;17.61;75.50
57114;BME280;42994;51.606;9.988;2022-09-03T08:37:33;99313.13;;;17.99;74.95
57114;BME280;42994;51.606;9.988;2022-09-03T08:40:00;99307.13;;;18.09;71.05
57114;BME280;42994;51.606;9.988;2022-09-03T08:42:42;99303.56;;;18.09;70.57
57114;BME280;42994;51.606;9.988;2022-09-03T08:45:14;99309.16;;;18.25;68.63
57114;BME280;42994;51.606;9.988;2022-09-03T08:47:45;99317.53;;;18.48;67.49
57114;BME280;42994;51.606;9.988;2022-09-03T08:50:22;99317.06;;;18.51;66.83
57114;BME280;42994;51.606;9.988;2022-09-03T08:52:52;99336.19;;;18.44;67.60
57114;BME280;42994;51.606;9.988;2022-09-03T08:55:26;99342.78;;;18.60;66.64
57114;BME280;42994;51.606;9.988;2022-09-03T08:57:59;99338.19;;;18.60;64.78
57114;BME280;42994;51.606;9.988;2022-09-03T09:00:37;99341.41;;;18.81;62.94
57114;BME280;42994;51.606;9.988;2022-09-03T09:03:17;99349.56;;;18.81;62.01
57114;BME280;42994;51.606;9.988;2022-09-03T09:05:53;99344.72;;;18.95;61.81
57114;BME280;42994;51.606;9.988;2022-09-03T09:08:31;99335.63;;;18.89;62.54
57114;BME280;42994;51.606;9.988;2022-09-03T09:11:05;99338.59;;;19.28;61.38
57114;BME280;42994;51.606;9.988;2022-09-03T09:13:40;99336.72;;;19.57;59.90
57114;BME280;42994;51.606;9.988;2022-09-03T09:16:13;99340.72;;;19.67;58.32
57114;BME280;42994;51.606;9.988;2022-09-03T09:18:55;99337.75;;;19.68;57.51
57114;BME280;42994;51.606;9.988;2022-09-03T09:21:33;99338.91;;;20.01;56.61
57114;BME280;42994;51.606;9.988;2022-09-03T09:24:11;99328.59;;;20.03;56.52
57114;BME280;42994;51.606;9.988;2022-09-03T09:26:40;99326.69;;;19.87;55.38
57114;BME280;42994;51.606;9.988;2022-09-03T09:29:08;99326.31;;;20.29;54.97
57114;BME280;42994;51.606;9.988;2022-09-03T09:31:36;99333.25;;;20.53;54.77
57114;BME280;42994;51.606;9.988;2022-09-03T09:34:05;99328.94;;;20.24;52.39
57114;BME280;42994;51.606;9.988;2022-09-03T09:36:40;99319.38;;;20.38;52.83
57114;BME280;42994;51.606;9.988;2022-09-03T09:39:08;99332.47;;;20.75;52.02
57114;BME280;42994;51.606;9.988;2022-09-03T09:41:35;99322.00;;;20.33;52.17
57114;BME280;42994;51.606;9.988;2022-09-03T09:44:03;99315.41;;;20.46;51.80
57114;BME280;42994;51.606;9.988;2022-09-03T09:46:34;99316.78;;;20.82;50.45
57114;BME280;42994;51.606;9.988;2022-09-03T09:49:01;99303.19;;;20.65;51.35
57114;BME280;42994;51.606;9.988;2022-09-03T09:51:29;99305.38;;;20.85;50.74
57114;BME280;42994;51.606;9.988;2022-09-03T09:54:03;99277.25;;;20.80;50.08
57114;BME280;42994;51.606;9.988;2022-09-03T09:56:37;99282.88;;;20.95;49.85
57114;BME280;42994;51.606;9.988;2022-09-03T09:59:05;99284.47;;;20.91;48.65
57114;BME280;42994;51.606;9.988;2022-09-03T10:01:33;99275.97;;;20.48;49.26
57114;BME280;42994;51.606;9.988;2022-09-03T10:04:08;99283.19;;;20.99;48.89
